sensor_id;sensor_type;location;lat;lon;timestamp;P1;durP1;ratioP1;P2;durP2;ratioP2
22064;SDS011;11197;53.110;8.468;2022-09-09T00:00:17;10.73;;;9.02;;
22064;SDS011;11197;53.110;8.468;2022-09-09T00:02:50;11.07;;;9.68;;
22064;SDS011;11197;53.110;8.468;2022-09-09T00:08:26;11.82;;;8.88;;
22064;SDS011;11197;53.110;8.468;2022-09-09T00:14:12;12.55;;;9.68;;
22064;SDS011;11197;53.110;8.468;2022-09-09T00:16:43;9.80;;;7.65;;
22064;SDS011;11197;53.110;8.468;2022-09-09T00:19:35;12.88;;;10.30;;
22064;SDS011;11197;53.110;8.468;2022-09-09T00:24:44;10.55;;;8.50;;
22064;SDS011;11197;53.110;8.468;2022-09-09T00:30:13;13.02;;;9.77;;
22064;SDS011;11197;53.110;8.468;2022-09-09T00:32:41;11.82;;;8.63;;
22064;SDS011;11197;53.110;8.468;2022-09-09T00:35:22;11.93;;;9.65;;
22064;SDS011;11197;53.110;8.468;2022-09-09T00:37:57;11.48;;;9.25;;
22064;SDS011;11197;53.110;8.468;2022-09-09T00:40:35;10.10;;;8.50;;
22064;SDS011;11197;53.110;8.468;2022-09-09T00:43:10;10.35;;;9.07;;
22064;SDS011;11197;53.110;8.468;2022-09-09T00:51:53;16.35;;;13.20;;
22064;SDS011;11197;53.110;8.468;2022-09-09T00:59:55;14.98;;;12.65;;
22064;SDS011;11197;53.110;8.468;2022-09-09T01:02:27;12.43;;;10.20;;
22064;SDS011;11197;53.110;8.468;2022-09-09T01:05:05;12.25;;;10.45;;
22064;SDS011;11197;53.110;8.468;2022-09-09T01:07:38;16.75;;;12.48;;
22064;SDS011;11197;53.110;8.468;2022-09-09T01:10:11;15.13;;;12.45;;
22064;SDS011;11197;53.110;8.468;2022-09-09T01:12:55;18.27;;;11.52;;
22064;SDS011;11197;53.110;8.468;2022-09-09T01:15:25;13.85;;;10.90;;
22064;SDS011;11197;53.110;8.468;2022-09-09T01:20:45;15.00;;;12.40;;
22064;SDS011;11197;53.110;8.468;2022-09-09T01:23:27;17.63;;;13.18;;
22064;SDS011;11197;53.110;8.468;2022-09-09T01:26:26;16.63;;;12.00;;
22064;SDS011;11197;53.110;8.468;2022-09-09T01:28:56;16.73;;;13.70;;
22064;SDS011;11197;53.110;8.468;2022-09-09T01:31:37;17.52;;;12.00;;
22064;SDS011;11197;53.110;8.468;2022-09-09T01:34:11;15.60;;;12.05;;
22064;SDS011;11197;53.110;8.468;2022-09-09T01:39:07;14.07;;;11.20;;
22064;SDS011;11197;53.110;8.468;2022-09-09T01:41:33;16.13;;;12.00;;
22064;SDS011;11197;53.110;8.468;2022-09-09T01:44:05;12.20;;;10.90;;
22064;SDS011;11197;53.110;8.468;2022-09-09T01:46:35;14.52;;;11.60;;
22064;SDS011;11197;53.110;8.468;2022-09-09T01:49:03;13.65;;;10.80;;
22064;SDS011;11197;53.110;8.468;2022-09-09T01:51:32;12.73;;;10.48;;
22064;SDS011;11197;53.110;8.468;2022-09-09T01:54:04;12.90;;;11.48;;
22064;SDS011;11197;53.110;8.468;2022-09-09T01:56:35;13.55;;;10.05;;
22064;SDS011;11197;53.110;8.468;2022-09-09T01:59:17;13.93;;;11.30;;
22064;SDS011;11197;53.110;8.468;2022-09-09T02:04:44;16.35;;;11.32;;
22064;SDS011;11197;53.110;8.468;2022-09-09T02:13:08;13.68;;;11.45;;
22064;SDS011;11197;53.110;8.468;2022-09-09T02:18:13;15.68;;;11.13;;
22064;SDS011;11197;53.110;8.468;2022-09-09T02:20:45;12.48;;;10.30;;
22064;SDS011;11197;53.110;8.468;2022-09-09T02:23:13;12.55;;;9.15;;
22064;SDS011;11197;53.110;8.468;2022-09-09T02:25:41;13.10;;;10.63;;
22064;SDS011;11197;53.110;8.468;2022-09-09T02:28:17;15.52;;;11.00;;
22064;SDS011;11197;53.110;8.468;2022-09-09T02:30:46;11.50;;;10.05;;
22064;SDS011;11197;53.110;8.468;2022-09-09T02:33:18;11.50;;;8.80;;
22064;SDS011;11197;53.110;8.468;2022-09-09T02:35:48;12.05;;;9.05;;
22064;SDS011;11197;53.110;8.468;2022-09-09T02:38:20;11.38;;;10.20;;
22064;SDS011;11197;53.110;8.468;2022-09-09T02:40:57;11.23;;;9.52;;
22064;SDS011;11197;53.110;8.468;2022-09-09T02:43:24;14.45;;;9.70;;
22064;SDS011;11197;53.110;8.468;2022-09-09T02:46:03;14.40;;;10.15;;
22064;SDS011;11197;53.110;8.468;2022-09-09T02:51:16;12.15;;;10.23;;
22064;SDS011;11197;53.110;8.468;2022-09-09T02:54:04;12.48;;;8.95;;
22064;SDS011;11197;53.110;8.468;2022-09-09T02:56:43;11.35;;;8.85;;
22064;SDS011;11197;53.110;8.468;2022-09-09T02:59:16;12.40;;;9.30;;
22064;SDS011;11197;53.110;8.468;2022-09-09T03:01:44;13.30;;;9.32;;
22064;SDS011;11197;53.110;8.468;2022-09-09T03:04:10;12.30;;;9.52;;
22064;SDS011;11197;53.110;8.468;2022-09-09T03:06:37;10.98;;;8.38;;
22064;SDS011;11197;53.110;8.468;2022-09-09T03:09:14;13.88;;;9.52;;
22064;SDS011;11197;53.110;8.468;2022-09-09T03:11:40;10.95;;;8.68;;
22064;SDS011;11197;53.110;8.468;2022-09-09T03:14:07;12.20;;;9.55;;
22064;SDS011;11197;53.110;8.468;2022-09-09T03:16:35;12.23;;;9.23;;
22064;SDS011;11197;53.110;8.468;2022-09-09T03:19:01;11.73;;;9.25;;
22064;SDS011;11197;53.110;8.468;2022-09-09T03:21:29;11.18;;;8.82;;
22064;SDS011;11197;53.110;8.468;2022-09-09T03:23:56;11.98;;;9.20;;
22064;SDS011;11197;53.110;8.468;2022-09-09T03:26:22;14.27;;;9.73;;
22064;SDS011;11197;53.110;8.468;2022-09-09T03:28:48;12.18;;;9.20;;
22064;SDS011;11197;53.110;8.468;2022-09-09T03:31:17;10.88;;;9.38;;
22064;SDS011;11197;53.110;8.468;2022-09-09T03:33:44;12.05;;;9.10;;
22064;SDS011;11197;53.110;8.468;2022-09-09T03:36:12;14.25;;;9.15;;
22064;SDS011;11197;53.110;8.468;2022-09-09T03:38:39;11.65;;;8.48;;
22064;SDS011;11197;53.110;8.468;2022-09-09T03:41:06;9.73;;;7.93;;
22064;SDS011;11197;53.110;8.468;2022-09-09T03:43:33;13.25;;;9.35;;
22064;SDS011;11197;53.110;8.468;2022-09-09T03:45:59;11.93;;;8.45;;
22064;SDS011;11197;53.110;8.468;2022-09-09T03:48:27;11.32;;;8.25;;
22064;SDS011;11197;53.110;8.468;2022-09-09T03:50:55;12.10;;;8.05;;
22064;SDS011;11197;53.110;8.468;2022-09-09T03:53:23;15.90;;;9.40;;
22064;SDS011;11197;53.110;8.468;2022-09-09T03:55:51;11.70;;;8.10;;
22064;SDS011;11197;53.110;8.468;2022-09-09T03:58:22;12.45;;;8.65;;
22064;SDS011;11197;53.110;8.468;2022-09-09T04:03:26;11.77;;;8.35;;
22064;SDS011;11197;53.110;8.468;2022-09-09T04:05:52;11.70;;;8.73;;
22064;SDS011;11197;53.110;8.468;2022-09-09T04:08:20;12.85;;;7.70;;
22064;SDS011;11197;53.110;8.468;2022-09-09T04:10:48;12.98;;;8.13;;
22064;SDS011;11197;53.110;8.468;2022-09-09T04:13:15;9.88;;;6.85;;
22064;SDS011;11197;53.110;8.468;2022-09-09T04:15:44;9.65;;;7.85;;
22064;SDS011;11197;53.110;8.468;2022-09-09T04:18:15;10.73;;;8.27;;
22064;SDS011;11197;53.110;8.468;2022-09-09T04:20:41;12.00;;;8.23;;
22064;SDS011;11197;53.110;8.468;2022-09-09T04:23:08;15.75;;;8.13;;
22064;SDS011;11197;53.110;8.468;2022-09-09T04:25:35;12.63;;;7.72;;
22064;SDS011;11197;53.110;8.468;2022-09-09T04:28:00;10.82;;;7.35;;
22064;SDS011;11197;53.110;8.468;2022-09-09T04:30:28;11.32;;;7.78;;
22064;SDS011;11197;53.110;8.468;2022-09-09T04:32:54;11.77;;;7.70;;
22064;SDS011;11197;53.110;8.468;2022-09-09T04:35:20;11.20;;;7.30;;
22064;SDS011;11197;53.110;8.468;2022-09-09T04:37:46;11.82;;;7.82;;
22064;SDS011;11197;53.110;8.468;2022-09-09T04:40:13;11.65;;;7.70;;
22064;SDS011;11197;53.110;8.468;2022-09-09T04:42:41;12.50;;;7.90;;
22064;SDS011;11197;53.110;8.468;2022-09-09T04:45:11;10.13;;;7.57;;
22064;SDS011;11197;53.110;8.468;2022-09-09T04:47:39;10.93;;;7.15;;
22064;SDS011;11197;53.110;8.468;2022-09-09T04:50:06;10.52;;;8.23;;
22064;SDS011;11197;53.110;8.468;2022-09-09T04:52:34;11.38;;;7.75;;
22064;SDS011;11197;53.110;8.468;2022-09-09T04:55:01;11.02;;;8.00;;
22064;SDS011;11197;53.110;8.468;2022-09-09T04:57:28;15.43;;;8.57;;
22064;SDS011;11197;53.110;8.468;2022-09-09T04:59:54;9.93;;;6.78;;
22064;SDS011;11197;53.110;8.468;2022-09-09T05:02:20;9.10;;;7.00;;
22064;SDS011;11197;53.110;8.468;2022-09-09T05:04:46;9.95;;;6.93;;
22064;SDS011;11197;53.110;8.468;2022-09-09T05:07:12;8.73;;;6.78;;
22064;SDS011;11197;53.110;8.468;2022-09-09T05:09:39;13.27;;;7.80;;
22064;SDS011;11197;53.110;8.468;2022-09-09T05:12:06;14.93;;;8.98;;
22064;SDS011;11197;53.110;8.468;2022-09-09T05:14:34;12.20;;;8.13;;
22064;SDS011;11197;53.110;8.468;2022-09-09T05:17:04;9.40;;;6.68;;
22064;SDS011;11197;53.110;8.468;2022-09-09T05:19:31;11.23;;;8.23;;
22064;SDS011;11197;53.110;8.468;2022-09-09T05:21:57;10.55;;;8.00;;
22064;SDS011;11197;53.110;8.468;2022-09-09T05:24:30;10.45;;;7.72;;
22064;SDS011;11197;53.110;8.468;2022-09-09T05:26:59;12.90;;;7.80;;
22064;SDS011;11197;53.110;8.468;2022-09-09T05:29:27;11.52;;;8.45;;
22064;SDS011;11197;53.110;8.468;2022-09-09T05:31:55;10.88;;;7.78;;
22064;SDS011;11197;53.110;8.468;2022-09-09T05:34:21;12.10;;;7.80;;
22064;SDS011;11197;53.110;8.468;2022-09-09T05:36:48;10.60;;;8.13;;
22064;SDS011;11197;53.110;8.468;2022-09-09T05:39:15;9.48;;;7.30;;
22064;SDS011;11197;53.110;8.468;2022-09-09T05:41:41;9.85;;;7.38;;
22064;SDS011;11197;53.110;8.468;2022-09-09T05:44:07;14.73;;;8.55;;
22064;SDS011;11197;53.110;8.468;2022-09-09T05:46:38;10.95;;;8.15;;
22064;SDS011;11197;53.110;8.468;2022-09-09T05:49:05;10.52;;;7.00;;
22064;SDS011;11197;53.110;8.468;2022-09-09T05:51:32;12.35;;;8.18;;
22064;SDS011;11197;53.110;8.468;2022-09-09T05:54:03;11.00;;;7.97;;
22064;SDS011;11197;53.110;8.468;2022-09-09T05:56:33;11.00;;;7.60;;
22064;SDS011;11197;53.110;8.468;2022-09-09T05:58:59;10.15;;;7.20;;
22064;SDS011;11197;53.110;8.468;2022-09-09T06:01:30;12.65;;;8.25;;
22064;SDS011;11197;53.110;8.468;2022-09-09T06:03:59;9.88;;;7.70;;
22064;SDS011;11197;53.110;8.468;2022-09-09T06:06:30;10.88;;;8.15;;
22064;SDS011;11197;53.110;8.468;2022-09-09T06:09:02;11.43;;;8.20;;
22064;SDS011;11197;53.110;8.468;2022-09-09T06:11:34;15.25;;;8.80;;
22064;SDS011;11197;53.110;8.468;2022-09-09T06:14:02;16.25;;;9.05;;
22064;SDS011;11197;53.110;8.468;2022-09-09T06:16:31;11.85;;;9.23;;
22064;SDS011;11197;53.110;8.468;2022-09-09T06:18:58;11.52;;;8.93;;
22064;SDS011;11197;53.110;8.468;2022-09-09T06:21:28;14.35;;;9.73;;
22064;SDS011;11197;53.110;8.468;2022-09-09T06:24:00;12.02;;;9.45;;
22064;SDS011;11197;53.110;8.468;2022-09-09T06:26:30;11.05;;;8.13;;
22064;SDS011;11197;53.110;8.468;2022-09-09T06:29:02;14.38;;;9.85;;
22064;SDS011;11197;53.110;8.468;2022-09-09T06:31:30;12.85;;;9.30;;
22064;SDS011;11197;53.110;8.468;2022-09-09T06:34:05;20.60;;;10.63;;
22064;SDS011;11197;53.110;8.468;2022-09-09T06:36:34;16.35;;;9.98;;
22064;SDS011;11197;53.110;8.468;2022-09-09T06:39:02;14.27;;;10.13;;
22064;SDS011;11197;53.110;8.468;2022-09-09T06:41:31;13.13;;;9.30;;
22064;SDS011;11197;53.110;8.468;2022-09-09T06:43:59;13.18;;;10.27;;
22064;SDS011;11197;53.110;8.468;2022-09-09T06:46:37;13.70;;;10.70;;
22064;SDS011;11197;53.110;8.468;2022-09-09T06:49:04;13.80;;;10.70;;
22064;SDS011;11197;53.110;8.468;2022-09-09T06:51:30;17.17;;;10.07;;
22064;SDS011;11197;53.110;8.468;2022-09-09T06:54:02;13.60;;;9.18;;
22064;SDS011;11197;53.110;8.468;2022-09-09T06:56:30;12.60;;;9.77;;
22064;SDS011;11197;53.110;8.468;2022-09-09T06:59:01;12.77;;;9.45;;
22064;SDS011;11197;53.110;8.468;2022-09-09T07:01:30;13.87;;;8.87;;
22064;SDS011;11197;53.110;8.468;2022-09-09T07:04:00;10.02;;;7.75;;
22064;SDS011;11197;53.110;8.468;2022-09-09T07:06:31;11.43;;;7.85;;
22064;SDS011;11197;53.110;8.468;2022-09-09T07:09:04;10.50;;;7.40;;
22064;SDS011;11197;53.110;8.468;2022-09-09T07:11:34;11.40;;;7.63;;
22064;SDS011;11197;53.110;8.468;2022-09-09T07:14:10;10.88;;;6.88;;
22064;SDS011;11197;53.110;8.468;2022-09-09T07:16:40;14.98;;;7.70;;
22064;SDS011;11197;53.110;8.468;2022-09-09T07:19:07;8.55;;;6.53;;
22064;SDS011;11197;53.110;8.468;2022-09-09T07:21:33;13.18;;;7.28;;
22064;SDS011;11197;53.110;8.468;2022-09-09T07:23:59;10.18;;;6.40;;
22064;SDS011;11197;53.110;8.468;2022-09-09T07:26:27;9.52;;;6.60;;
22064;SDS011;11197;53.110;8.468;2022-09-09T07:28:57;10.68;;;6.15;;
22064;SDS011;11197;53.110;8.468;2022-09-09T07:31:24;10.65;;;7.07;;
22064;SDS011;11197;53.110;8.468;2022-09-09T07:33:56;13.13;;;7.25;;
22064;SDS011;11197;53.110;8.468;2022-09-09T07:36:26;12.52;;;7.40;;
22064;SDS011;11197;53.110;8.468;2022-09-09T07:39:00;11.40;;;7.38;;
22064;SDS011;11197;53.110;8.468;2022-09-09T07:41:35;13.70;;;6.85;;
22064;SDS011;11197;53.110;8.468;2022-09-09T07:44:07;11.00;;;6.90;;
22064;SDS011;11197;53.110;8.468;2022-09-09T07:46:35;11.68;;;7.40;;
22064;SDS011;11197;53.110;8.468;2022-09-09T07:49:02;12.13;;;7.80;;
22064;SDS011;11197;53.110;8.468;2022-09-09T07:54:00;9.30;;;6.43;;
22064;SDS011;11197;53.110;8.468;2022-09-09T07:56:31;9.82;;;6.53;;
22064;SDS011;11197;53.110;8.468;2022-09-09T07:58:58;13.15;;;7.25;;
22064;SDS011;11197;53.110;8.468;2022-09-09T08:01:26;10.82;;;6.63;;
22064;SDS011;11197;53.110;8.468;2022-09-09T08:03:58;11.75;;;6.50;;
22064;SDS011;11197;53.110;8.468;2022-09-09T08:06:27;11.57;;;6.50;;
22064;SDS011;11197;53.110;8.468;2022-09-09T08:08:55;8.50;;;5.55;;
22064;SDS011;11197;53.110;8.468;2022-09-09T08:11:23;13.52;;;6.20;;
22064;SDS011;11197;53.110;8.468;2022-09-09T08:13:50;8.25;;;5.55;;
22064;SDS011;11197;53.110;8.468;2022-09-09T08:16:17;9.40;;;5.22;;
22064;SDS011;11197;53.110;8.468;2022-09-09T08:18:49;11.52;;;5.70;;
22064;SDS011;11197;53.110;8.468;2022-09-09T08:21:18;8.60;;;5.78;;
22064;SDS011;11197;53.110;8.468;2022-09-09T08:23:47;8.32;;;5.10;;
22064;SDS011;11197;53.110;8.468;2022-09-09T08:26:16;10.40;;;5.60;;
22064;SDS011;11197;53.110;8.468;2022-09-09T08:28:47;9.63;;;5.20;;
22064;SDS011;11197;53.110;8.468;2022-09-09T08:31:17;8.18;;;4.70;;
22064;SDS011;11197;53.110;8.468;2022-09-09T08:33:49;9.73;;;5.15;;
22064;SDS011;11197;53.110;8.468;2022-09-09T08:36:19;10.40;;;5.40;;
22064;SDS011;11197;53.110;8.468;2022-09-09T08:38:51;8.68;;;5.70;;
22064;SDS011;11197;53.110;8.468;2022-09-09T08:58:51;10.45;;;7.95;;
22064;SDS011;11197;53.110;8.468;2022-09-09T09:12:32;7.78;;;6.30;;
22064;SDS011;11197;53.110;8.468;2022-09-09T09:15:09;9.27;;;5.93;;
22064;SDS011;11197;53.110;8.468;2022-09-09T09:17:43;8.48;;;5.60;;
22064;SDS011;11197;53.110;8.468;2022-09-09T09:20:17;10.52;;;5.43;;
22064;SDS011;11197;53.110;8.468;2022-09-09T09:22:50;7.13;;;4.90;;
22064;SDS011;11197;53.110;8.468;2022-09-09T09:27:58;9.68;;;4.57;;
22064;SDS011;11197;53.110;8.468;2022-09-09T09:30:39;7.70;;;4.80;;
22064;SDS011;11197;53.110;8.468;2022-09-09T09:33:29;9.50;;;4.90;;
22064;SDS011;11197;53.110;8.468;2022-09-09T09:36:08;7.57;;;4.10;;
22064;SDS011;11197;53.110;8.468;2022-09-09T09:38:36;6.97;;;4.20;;
22064;SDS011;11197;53.110;8.468;2022-09-09T09:41:03;7.32;;;3.90;;
22064;SDS011;11197;53.110;8.468;2022-09-09T09:43:36;7.38;;;3.50;;
22064;SDS011;11197;53.110;8.468;2022-09-09T09:46:23;7.22;;;3.72;;
22064;SDS011;11197;53.110;8.468;2022-09-09T09:49:03;8.77;;;3.60;;
22064;SDS011;11197;53.110;8.468;2022-09-09T09:51:31;7.22;;;4.32;;
22064;SDS011;11197;53.110;8.468;2022-09-09T09:54:08;9.82;;;3.70;;
22064;SDS011;11197;53.110;8.468;2022-09-09T09:56:39;7.60;;;3.95;;
22064;SDS011;11197;53.110;8.468;2022-09-09T09:59:19;6.25;;;3.75;;
22064;SDS011;11197;53.110;8.468;2022-09-09T10:02:22;8.43;;;3.88;;
22064;SDS011;11197;53.110;8.468;2022-09-09T10:08:00;8.27;;;4.53;;
22064;SDS011;11197;53.110;8.468;2022-09-09T10:10:28;7.85;;;4.15;;
22064;SDS011;11197;53.110;8.468;2022-09-09T10:13:11;9.55;;;4.60;;
22064;SDS011;11197;53.110;8.468;2022-09-09T10:26:53;8.38;;;4.53;;
22064;SDS011;11197;53.110;8.468;2022-09-09T10:51:22;6.20;;;3.40;;
22064;SDS011;11197;53.110;8.468;2022-09-09T10:54:31;6.53;;;3.30;;
22064;SDS011;11197;53.110;8.468;2022-09-09T10:56:50;6.27;;;3.50;;
22064;SDS011;11197;53.110;8.468;2022-09-09T10:59:29;9.05;;;4.18;;
22064;SDS011;11197;53.110;8.468;2022-09-09T11:02:07;9.35;;;4.57;;
22064;SDS011;11197;53.110;8.468;2022-09-09T11:04:43;8.75;;;4.50;;
22064;SDS011;11197;53.110;8.468;2022-09-09T11:07:15;10.05;;;4.35;;
22064;SDS011;11197;53.110;8.468;2022-09-09T11:09:52;9.77;;;4.60;;
22064;SDS011;11197;53.110;8.468;2022-09-09T11:12:23;7.25;;;4.25;;
22064;SDS011;11197;53.110;8.468;2022-09-09T11:14:57;9.32;;;4.20;;
22064;SDS011;11197;53.110;8.468;2022-09-09T11:17:49;9.65;;;3.63;;
22064;SDS011;11197;53.110;8.468;2022-09-09T11:20:20;8.45;;;3.60;;
22064;SDS011;11197;53.110;8.468;2022-09-09T11:22:58;7.95;;;3.20;;
22064;SDS011;11197;53.110;8.468;2022-09-09T11:25:50;7.00;;;2.80;;
22064;SDS011;11197;53.110;8.468;2022-09-09T11:36:12;6.95;;;2.90;;
22064;SDS011;11197;53.110;8.468;2022-09-09T11:44:40;8.77;;;3.35;;
22064;SDS011;11197;53.110;8.468;2022-09-09T11:49:51;7.55;;;3.40;;
22064;SDS011;11197;53.110;8.468;2022-09-09T11:54:50;7.70;;;3.03;;
22064;SDS011;11197;53.110;8.468;2022-09-09T11:57:30;7.55;;;2.90;;
22064;SDS011;11197;53.110;8.468;2022-09-09T12:00:00;9.43;;;3.75;;
22064;SDS011;11197;53.110;8.468;2022-09-09T12:02:37;9.75;;;3.45;;
22064;SDS011;11197;53.110;8.468;2022-09-09T12:05:15;7.97;;;3.50;;
22064;SDS011;11197;53.110;8.468;2022-09-09T12:07:51;8.48;;;3.45;;
22064;SDS011;11197;53.110;8.468;2022-09-09T12:10:30;6.82;;;3.22;;
22064;SDS011;11197;53.110;8.468;2022-09-09T12:15:46;22.88;;;12.98;;
22064;SDS011;11197;53.110;8.468;2022-09-09T12:21:03;19.83;;;9.00;;
22064;SDS011;11197;53.110;8.468;2022-09-09T12:23:52;18.15;;;8.55;;
22064;SDS011;11197;53.110;8.468;2022-09-09T12:34:40;7.65;;;3.90;;
22064;SDS011;11197;53.110;8.468;2022-09-09T12:40:15;10.48;;;4.22;;
22064;SDS011;11197;53.110;8.468;2022-09-09T12:42:51;9.85;;;3.80;;
22064;SDS011;11197;53.110;8.468;2022-09-09T12:48:08;9.60;;;3.63;;
22064;SDS011;11197;53.110;8.468;2022-09-09T12:50:50;6.40;;;3.85;;
22064;SDS011;11197;53.110;8.468;2022-09-09T12:58:23;11.93;;;3.92;;
22064;SDS011;11197;53.110;8.468;2022-09-09T13:00:50;6.20;;;3.70;;
22064;SDS011;11197;53.110;8.468;2022-09-09T13:03:21;8.07;;;3.90;;
22064;SDS011;11197;53.110;8.468;2022-09-09T13:05:48;7.50;;;3.60;;
22064;SDS011;11197;53.110;8.468;2022-09-09T13:08:15;11.07;;;4.32;;
22064;SDS011;11197;53.110;8.468;2022-09-09T13:16:00;7.35;;;4.38;;
22064;SDS011;11197;53.110;8.468;2022-09-09T13:22:20;6.47;;;3.00;;
22064;SDS011;11197;53.110;8.468;2022-09-09T13:28:42;6.03;;;2.42;;
22064;SDS011;11197;53.110;8.468;2022-09-09T13:31:19;5.05;;;2.08;;
22064;SDS011;11197;53.110;8.468;2022-09-09T13:33:49;6.15;;;1.98;;
22064;SDS011;11197;53.110;8.468;2022-09-09T13:36:26;4.57;;;1.70;;
22064;SDS011;11197;53.110;8.468;2022-09-09T13:38:58;4.50;;;1.90;;
22064;SDS011;11197;53.110;8.468;2022-09-09T13:41:28;3.80;;;1.80;;
22064;SDS011;11197;53.110;8.468;2022-09-09T13:43:57;5.18;;;2.10;;
22064;SDS011;11197;53.110;8.468;2022-09-09T13:52:59;4.55;;;2.00;;
22064;SDS011;11197;53.110;8.468;2022-09-09T13:55:26;4.40;;;1.80;;
22064;SDS011;11197;53.110;8.468;2022-09-09T13:57:57;5.75;;;2.10;;
22064;SDS011;11197;53.110;8.468;2022-09-09T14:00:29;6.53;;;2.00;;
22064;SDS011;11197;53.110;8.468;2022-09-09T14:02:56;4.55;;;2.10;;
22064;SDS011;11197;53.110;8.468;2022-09-09T14:05:22;4.22;;;1.77;;
22064;SDS011;11197;53.110;8.468;2022-09-09T14:07:49;5.18;;;2.20;;
22064;SDS011;11197;53.110;8.468;2022-09-09T14:10:16;5.25;;;2.30;;
22064;SDS011;11197;53.110;8.468;2022-09-09T14:12:43;4.55;;;1.98;;
22064;SDS011;11197;53.110;8.468;2022-09-09T14:15:09;6.03;;;2.50;;
22064;SDS011;11197;53.110;8.468;2022-09-09T14:17:37;4.00;;;2.55;;
22064;SDS011;11197;53.110;8.468;2022-09-09T14:20:04;3.47;;;2.20;;
22064;SDS011;11197;53.110;8.468;2022-09-09T14:22:33;4.85;;;2.55;;
22064;SDS011;11197;53.110;8.468;2022-09-09T14:24:59;5.55;;;2.42;;
22064;SDS011;11197;53.110;8.468;2022-09-09T14:27:25;4.10;;;2.20;;
22064;SDS011;11197;53.110;8.468;2022-09-09T14:29:51;9.65;;;3.25;;
22064;SDS011;11197;53.110;8.468;2022-09-09T14:32:18;3.97;;;2.13;;
22064;SDS011;11197;53.110;8.468;2022-09-09T14:34:44;5.85;;;2.70;;
22064;SDS011;11197;53.110;8.468;2022-09-09T14:37:10;6.85;;;2.65;;
22064;SDS011;11197;53.110;8.468;2022-09-09T14:39:36;5.60;;;2.53;;
22064;SDS011;11197;53.110;8.468;2022-09-09T14:42:02;6.07;;;2.60;;
22064;SDS011;11197;53.110;8.468;2022-09-09T14:44:29;4.93;;;2.83;;
22064;SDS011;11197;53.110;8.468;2022-09-09T14:46:55;5.28;;;3.03;;
22064;SDS011;11197;53.110;8.468;2022-09-09T14:49:21;4.32;;;2.85;;
22064;SDS011;11197;53.110;8.468;2022-09-09T14:51:47;5.50;;;2.85;;
22064;SDS011;11197;53.110;8.468;2022-09-09T14:54:13;4.18;;;3.03;;
22064;SDS011;11197;53.110;8.468;2022-09-09T14:56:40;6.65;;;3.88;;
22064;SDS011;11197;53.110;8.468;2022-09-09T14:59:06;6.25;;;3.20;;
22064;SDS011;11197;53.110;8.468;2022-09-09T15:01:31;7.85;;;3.40;;
22064;SDS011;11197;53.110;8.468;2022-09-09T15:03:59;7.47;;;3.60;;
22064;SDS011;11197;53.110;8.468;2022-09-09T15:06:28;5.35;;;3.35;;
22064;SDS011;11197;53.110;8.468;2022-09-09T15:08:56;6.65;;;3.10;;
22064;SDS011;11197;53.110;8.468;2022-09-09T15:11:23;6.10;;;3.55;;
22064;SDS011;11197;53.110;8.468;2022-09-09T15:13:53;5.70;;;3.83;;
22064;SDS011;11197;53.110;8.468;2022-09-09T15:16:20;8.23;;;4.13;;
22064;SDS011;11197;53.110;8.468;2022-09-09T15:18:50;7.00;;;4.10;;
22064;SDS011;11197;53.110;8.468;2022-09-09T15:21:19;8.05;;;4.20;;
22064;SDS011;11197;53.110;8.468;2022-09-09T15:23:46;7.25;;;4.03;;
22064;SDS011;11197;53.110;8.468;2022-09-09T15:26:13;6.75;;;4.15;;
22064;SDS011;11197;53.110;8.468;2022-09-09T15:28:39;6.55;;;3.28;;
22064;SDS011;11197;53.110;8.468;2022-09-09T15:31:07;5.15;;;3.83;;
22064;SDS011;11197;53.110;8.468;2022-09-09T15:33:37;8.27;;;4.55;;
22064;SDS011;11197;53.110;8.468;2022-09-09T15:36:23;9.10;;;4.50;;
22064;SDS011;11197;53.110;8.468;2022-09-09T15:38:51;6.22;;;4.40;;
22064;SDS011;11197;53.110;8.468;2022-09-09T15:41:19;9.45;;;4.50;;
22064;SDS011;11197;53.110;8.468;2022-09-09T15:43:50;9.35;;;4.60;;
22064;SDS011;11197;53.110;8.468;2022-09-09T15:48:57;9.27;;;5.18;;
22064;SDS011;11197;53.110;8.468;2022-09-09T15:51:28;8.38;;;5.28;;
22064;SDS011;11197;53.110;8.468;2022-09-09T15:53:55;6.40;;;4.47;;
22064;SDS011;11197;53.110;8.468;2022-09-09T15:56:23;8.48;;;5.88;;
22064;SDS011;11197;53.110;8.468;2022-09-09T15:58:51;11.68;;;6.05;;
22064;SDS011;11197;53.110;8.468;2022-09-09T16:01:17;7.60;;;4.03;;
22064;SDS011;11197;53.110;8.468;2022-09-09T16:03:45;7.35;;;4.40;;
22064;SDS011;11197;53.110;8.468;2022-09-09T16:06:13;10.60;;;4.90;;
22064;SDS011;11197;53.110;8.468;2022-09-09T16:08:41;9.30;;;5.45;;
22064;SDS011;11197;53.110;8.468;2022-09-09T16:11:10;8.93;;;4.07;;
22064;SDS011;11197;53.110;8.468;2022-09-09T16:13:39;8.98;;;4.00;;
22064;SDS011;11197;53.110;8.468;2022-09-09T16:16:07;8.15;;;4.43;;
22064;SDS011;11197;53.110;8.468;2022-09-09T16:18:38;7.22;;;4.70;;
22064;SDS011;11197;53.110;8.468;2022-09-09T16:21:06;8.32;;;4.57;;
22064;SDS011;11197;53.110;8.468;2022-09-09T16:23:34;7.07;;;4.10;;
22064;SDS011;11197;53.110;8.468;2022-09-09T16:26:00;8.30;;;4.55;;
22064;SDS011;11197;53.110;8.468;2022-09-09T16:28:27;5.70;;;3.63;;
22064;SDS011;11197;53.110;8.468;2022-09-09T16:30:53;6.75;;;3.75;;
22064;SDS011;11197;53.110;8.468;2022-09-09T16:33:20;7.53;;;4.20;;
22064;SDS011;11197;53.110;8.468;2022-09-09T16:35:47;6.38;;;3.50;;
22064;SDS011;11197;53.110;8.468;2022-09-09T16:38:14;7.30;;;4.45;;
22064;SDS011;11197;53.110;8.468;2022-09-09T16:40:40;8.88;;;3.88;;
22064;SDS011;11197;53.110;8.468;2022-09-09T16:43:07;4.50;;;2.80;;
22064;SDS011;11197;53.110;8.468;2022-09-09T16:45:44;6.32;;;3.90;;
22064;SDS011;11197;53.110;8.468;2022-09-09T16:48:11;7.35;;;3.35;;
22064;SDS011;11197;53.110;8.468;2022-09-09T16:50:37;9.10;;;3.40;;
22064;SDS011;11197;53.110;8.468;2022-09-09T16:53:04;8.38;;;3.65;;
22064;SDS011;11197;53.110;8.468;2022-09-09T16:55:37;7.83;;;3.97;;
22064;SDS011;11197;53.110;8.468;2022-09-09T16:58:05;9.23;;;3.70;;
22064;SDS011;11197;53.110;8.468;2022-09-09T17:00:32;7.03;;;3.47;;
22064;SDS011;11197;53.110;8.468;2022-09-09T17:02:59;8.52;;;3.85;;
22064;SDS011;11197;53.110;8.468;2022-09-09T17:05:25;9.82;;;3.47;;
22064;SDS011;11197;53.110;8.468;2022-09-09T17:07:51;4.55;;;3.00;;
22064;SDS011;11197;53.110;8.468;2022-09-09T17:10:20;6.63;;;3.10;;
22064;SDS011;11197;53.110;8.468;2022-09-09T17:12:49;7.85;;;3.50;;
22064;SDS011;11197;53.110;8.468;2022-09-09T17:15:15;6.68;;;3.38;;
22064;SDS011;11197;53.110;8.468;2022-09-09T17:17:43;5.72;;;3.10;;
22064;SDS011;11197;53.110;8.468;2022-09-09T17:20:10;5.05;;;2.95;;
22064;SDS011;11197;53.110;8.468;2022-09-09T17:22:37;5.47;;;3.00;;
22064;SDS011;11197;53.110;8.468;2022-09-09T17:25:03;4.38;;;2.42;;
22064;SDS011;11197;53.110;8.468;2022-09-09T17:27:30;4.03;;;1.88;;
22064;SDS011;11197;53.110;8.468;2022-09-09T17:29:59;3.97;;;1.60;;
22064;SDS011;11197;53.110;8.468;2022-09-09T17:32:25;4.95;;;1.70;;
22064;SDS011;11197;53.110;8.468;2022-09-09T17:34:51;2.90;;;1.60;;
22064;SDS011;11197;53.110;8.468;2022-09-09T17:37:18;4.40;;;2.03;;
22064;SDS011;11197;53.110;8.468;2022-09-09T17:39:44;5.68;;;2.20;;
22064;SDS011;11197;53.110;8.468;2022-09-09T17:42:10;4.05;;;2.10;;
22064;SDS011;11197;53.110;8.468;2022-09-09T17:44:36;3.00;;;1.90;;
22064;SDS011;11197;53.110;8.468;2022-09-09T17:47:02;5.72;;;2.50;;
22064;SDS011;11197;53.110;8.468;2022-09-09T17:49:29;5.85;;;2.50;;
22064;SDS011;11197;53.110;8.468;2022-09-09T17:51:55;5.18;;;2.83;;
22064;SDS011;11197;53.110;8.468;2022-09-09T17:54:22;4.55;;;2.25;;
22064;SDS011;11197;53.110;8.468;2022-09-09T17:56:48;5.25;;;2.50;;
22064;SDS011;11197;53.110;8.468;2022-09-09T17:59:15;5.65;;;2.40;;